createdAt,value
2023-03-23T00:00:51.031Z,28.23
2023-03-23T00:10:51.135Z,28.23
2023-03-23T00:11:51.170Z,28.26
2023-03-23T00:12:51.168Z,28.23
2023-03-23T00:13:51.296Z,28.26
2023-03-23T00:14:51.259Z,28.25
2023-03-23T00:15:51.309Z,28.22
2023-03-23T00:16:51.338Z,28.25
2023-03-23T00:17:51.401Z,28.25
2023-03-23T00:18:51.459Z,28.23
2023-03-23T00:19:51.491Z,28.22
2023-03-23T00:20:51.509Z,28.22
2023-03-23T00:21:51.586Z,28.21
2023-03-23T00:22:51.591Z,28.25
2023-03-23T00:26:51.659Z,28.23
2023-03-23T00:27:51.661Z,28.23
2023-03-23T00:28:51.667Z,28.22
2023-03-23T00:29:51.668Z,28.22
2023-03-23T00:30:51.695Z,28.22
2023-03-23T00:31:51.697Z,28.21
2023-03-23T00:32:51.715Z,28.21
2023-03-23T00:33:51.727Z,28.22
2023-03-23T00:34:51.741Z,28.21
2023-03-23T00:35:51.823Z,28.22
2023-03-23T00:36:51.799Z,28.22
2023-03-23T00:37:51.806Z,28.25
2023-03-23T00:38:51.834Z,28.22
2023-03-23T00:39:51.878Z,28.23
2023-03-23T00:40:51.918Z,28.23
2023-03-23T00:41:51.985Z,28.21
2023-03-23T00:42:52.002Z,28.22
2023-03-23T00:43:52.066Z,28.22
2023-03-23T00:44:53.656Z,28.22
2023-03-23T00:45:52.133Z,28.23
2023-03-23T00:46:52.158Z,28.23
2023-03-23T00:48:52.297Z,28.21
2023-03-23T00:49:52.297Z,28.22
2023-03-23T00:50:52.328Z,28.22
2023-03-23T00:51:52.364Z,28.23
2023-03-23T00:52:52.462Z,28.22
2023-03-23T00:53:52.491Z,28.21
2023-03-23T00:54:52.507Z,28.22
2023-03-23T00:55:52.555Z,28.21
2023-03-23T00:56:52.619Z,28.22
2023-03-23T00:57:52.648Z,28.19
2023-03-23T00:58:52.712Z,28.19
2023-03-23T00:59:52.738Z,28.22
2023-03-23T01:00:52.799Z,28.21
2023-03-23T01:01:52.851Z,28.21
2023-03-23T01:02:52.900Z,28.22
2023-03-23T01:03:52.939Z,28.21
2023-03-23T01:04:52.981Z,28.22
2023-03-23T01:05:53.033Z,28.21
2023-03-23T01:06:53.039Z,28.19
2023-03-23T01:07:53.092Z,28.22
2023-03-23T01:08:53.198Z,28.22
2023-03-23T01:09:53.265Z,28.21
2023-03-23T01:20:53.369Z,28.23
2023-03-23T01:21:53.369Z,28.22
2023-03-23T01:22:53.372Z,28.22
2023-03-23T01:23:53.368Z,28.18
2023-03-23T01:24:53.390Z,28.21
2023-03-23T01:25:53.411Z,28.18
2023-03-23T01:26:53.440Z,28.19
2023-03-23T01:27:53.455Z,28.21
2023-03-23T01:34:53.650Z,28.19
2023-03-23T01:35:53.746Z,28.19
2023-03-23T01:36:53.753Z,28.18
2023-03-23T01:37:53.788Z,28.21
2023-03-23T01:38:53.852Z,28.19
2023-03-23T01:39:53.916Z,28.18
2023-03-23T01:40:53.901Z,28.21
2023-03-23T01:41:53.949Z,28.18
2023-03-23T01:42:53.959Z,28.18
2023-03-23T01:43:53.993Z,28.16
2023-03-23T01:44:53.994Z,28.18
2023-03-23T01:45:54.017Z,28.18
2023-03-23T01:46:54.056Z,28.16
2023-03-23T01:47:54.060Z,28.15
2023-03-23T01:48:54.100Z,28.18
2023-03-23T01:49:54.117Z,28.21
2023-03-23T01:54:54.212Z,28.18
2023-03-23T01:55:54.219Z,28.16
2023-03-23T01:56:54.239Z,28.18
2023-03-23T01:57:54.270Z,28.15
2023-03-23T01:58:54.287Z,28.18
2023-03-23T02:00:54.314Z,28.16
2023-03-23T02:01:54.323Z,28.16
2023-03-23T02:02:54.338Z,28.18
2023-03-23T02:03:54.364Z,28.19
2023-03-23T02:04:54.401Z,28.16
2023-03-23T02:05:54.412Z,28.16
2023-03-23T02:06:54.435Z,28.18
2023-03-23T02:07:54.464Z,28.18
2023-03-23T02:08:54.464Z,28.16
2023-03-23T02:09:54.511Z,28.16
2023-03-23T02:10:54.519Z,28.16
2023-03-23T02:11:54.542Z,28.16
2023-03-23T02:12:54.604Z,28.16
2023-03-23T02:13:54.654Z,28.16
2023-03-23T02:14:54.699Z,28.16
2023-03-23T02:15:54.749Z,28.15
2023-03-23T02:16:54.781Z,28.16
2023-03-23T02:17:54.842Z,28.16
2023-03-23T02:18:54.887Z,28.19
2023-03-23T02:19:54.904Z,28.16
2023-03-23T02:20:54.979Z,28.16
2023-03-23T02:21:55.015Z,28.15
2023-03-23T02:22:55.052Z,28.15
2023-03-23T02:23:55.111Z,28.15
2023-03-23T02:24:55.169Z,28.16
2023-03-23T02:25:55.216Z,28.16
2023-03-23T02:26:55.284Z,28.15
2023-03-23T02:27:55.343Z,28.15
2023-03-23T02:28:55.376Z,28.18
2023-03-23T02:29:55.412Z,28.18
2023-03-23T02:30:55.399Z,28.16
2023-03-23T02:41:55.750Z,28.15
2023-03-23T02:42:55.758Z,28.15
2023-03-23T02:43:55.758Z,28.16
2023-03-23T02:44:55.788Z,28.16
2023-03-23T02:45:55.830Z,28.16
2023-03-23T02:46:55.867Z,28.15
2023-03-23T02:49:55.925Z,28.18
2023-03-23T02:50:55.959Z,28.16
2023-03-23T02:51:55.978Z,28.15
2023-03-23T02:52:56.005Z,28.18
2023-03-23T02:53:56.022Z,28.15
2023-03-23T02:54:56.041Z,28.16
2023-03-23T02:55:56.083Z,28.16
2023-03-23T02:56:56.153Z,28.18
2023-03-23T02:57:56.154Z,28.16
2023-03-23T03:03:56.280Z,28.15
2023-03-23T03:04:56.291Z,28.18
2023-03-23T03:05:56.328Z,28.16
2023-03-23T03:06:56.349Z,28.13
2023-03-23T03:07:56.372Z,28.13
2023-03-23T03:08:56.417Z,28.15
2023-03-23T03:09:56.457Z,28.13
2023-03-23T03:10:56.456Z,28.16
2023-03-23T03:11:56.469Z,28.15
2023-03-23T03:12:56.481Z,28.15
2023-03-23T03:13:56.560Z,28.13
2023-03-23T03:14:56.584Z,28.18
2023-03-23T03:15:56.626Z,28.15
2023-03-23T03:16:56.713Z,28.13
2023-03-23T03:17:56.747Z,28.12
2023-03-23T03:18:56.791Z,28.13
2023-03-23T03:19:56.844Z,28.15
2023-03-23T03:20:56.892Z,28.16
2023-03-23T03:21:56.940Z,28.12
2023-03-23T03:22:57.009Z,28.13
2023-03-23T03:23:57.084Z,28.13
2023-03-23T03:24:57.109Z,28.15
2023-03-23T03:25:57.158Z,28.13
2023-03-23T03:26:57.190Z,28.13
2023-03-23T03:27:57.256Z,28.16
2023-03-23T03:28:57.294Z,28.12
2023-03-23T03:29:57.346Z,28.13
2023-03-23T03:30:57.434Z,28.16
2023-03-23T03:31:57.458Z,28.13
2023-03-23T03:32:57.480Z,28.15
2023-03-23T03:33:57.509Z,28.15
2023-03-23T03:34:57.524Z,28.15
2023-03-23T03:39:57.658Z,28.13
2023-03-23T03:40:57.784Z,28.11
2023-03-23T03:41:57.705Z,28.12
2023-03-23T03:42:57.856Z,28.13
2023-03-23T03:53:58.123Z,28.11
2023-03-23T03:54:58.190Z,28.13
2023-03-23T03:55:58.202Z,28.13
2023-03-23T03:56:58.256Z,28.13
2023-03-23T03:57:58.290Z,28.11
2023-03-23T03:58:58.302Z,28.13
2023-03-23T03:59:59.299Z,28.12
2023-03-23T04:04:58.249Z,28.15
2023-03-23T04:06:58.229Z,28.13
2023-03-23T04:07:58.227Z,28.15
2023-03-23T04:09:08.316Z,28.16
2023-03-23T04:09:59.264Z,28.18
2023-03-23T04:14:58.154Z,28.25
2023-03-23T04:16:10.074Z,28.25
2023-03-23T04:16:59.172Z,28.23
2023-03-23T04:17:58.179Z,28.26
2023-03-23T04:18:58.173Z,28.28
2023-03-23T04:23:58.129Z,28.36
2023-03-23T04:24:58.118Z,28.35
2023-03-23T04:27:59.199Z,28.41
2023-03-23T04:30:58.076Z,28.43
2023-03-23T04:31:58.067Z,28.46
2023-03-23T04:36:58.000Z,28.53
2023-03-23T04:37:58.012Z,28.53
2023-03-23T04:38:58.023Z,28.55
2023-03-23T04:39:58.008Z,28.55
2023-03-23T04:40:58.006Z,28.56
2023-03-23T04:41:58.004Z,28.56
2023-03-23T04:48:57.930Z,28.62
2023-03-23T04:54:57.909Z,28.62
2023-03-23T04:55:57.909Z,28.63
2023-03-23T05:04:59.402Z,28.66
2023-03-23T05:05:57.845Z,28.64
2023-03-23T05:10:57.791Z,28.63
2023-03-23T05:11:57.833Z,28.63
2023-03-23T05:13:57.761Z,28.63
2023-03-23T05:14:57.781Z,28.64
2023-03-23T05:16:57.749Z,28.63
2023-03-23T05:17:57.760Z,28.67
2023-03-23T05:22:57.732Z,28.69
2023-03-23T05:27:57.739Z,28.64
2023-03-23T05:30:57.734Z,28.67
2023-03-23T05:32:57.711Z,28.69
2023-03-23T05:37:57.689Z,28.66
2023-03-23T05:38:57.686Z,28.67
2023-03-23T05:43:57.670Z,28.64
2023-03-23T05:53:57.600Z,28.67
2023-03-23T05:54:57.636Z,28.66
2023-03-23T06:02:57.504Z,28.60
2023-03-23T06:03:59.260Z,28.60
2023-03-23T06:04:57.507Z,28.62
2023-03-23T06:05:57.492Z,28.62
2023-03-23T06:06:57.531Z,28.63
2023-03-23T06:10:57.451Z,28.62
2023-03-23T06:12:57.470Z,28.62
2023-03-23T06:15:57.433Z,28.63
2023-03-23T06:16:57.431Z,28.63
2023-03-23T06:17:57.540Z,28.63
2023-03-23T06:22:57.378Z,28.66
2023-03-23T06:23:57.388Z,28.69
2023-03-23T06:25:57.405Z,28.66
2023-03-23T06:26:58.382Z,28.70
2023-03-23T06:29:57.835Z,28.69
2023-03-23T06:31:57.328Z,28.70
2023-03-23T06:36:57.324Z,28.52
2023-03-23T06:40:57.358Z,27.99
2023-03-23T06:41:57.387Z,27.80
2023-03-23T06:47:57.422Z,27.23
2023-03-23T06:48:57.440Z,27.20
2023-03-23T06:49:57.856Z,27.20
2023-03-23T06:50:57.390Z,27.22
2023-03-23T06:51:57.400Z,27.26
2023-03-23T06:52:57.386Z,27.29
2023-03-23T06:53:57.418Z,27.30
2023-03-23T06:56:57.434Z,27.34
2023-03-23T06:58:57.360Z,27.36
2023-03-23T07:00:57.335Z,27.40
2023-03-23T07:01:57.333Z,27.40
2023-03-23T07:02:57.322Z,27.38
2023-03-23T07:03:57.358Z,27.41
2023-03-23T07:05:57.362Z,27.40
2023-03-23T07:06:57.303Z,27.38
2023-03-23T07:07:57.364Z,27.37
2023-03-23T07:12:57.238Z,27.30
2023-03-23T07:13:57.273Z,27.30
2023-03-23T07:14:57.296Z,27.29
2023-03-23T07:15:57.310Z,27.27
2023-03-23T07:16:57.362Z,27.29
2023-03-23T07:17:57.376Z,27.29
2023-03-23T07:19:57.440Z,27.29
2023-03-23T07:20:57.872Z,27.25
2023-03-23T07:21:57.443Z,27.20
2023-03-23T07:22:57.517Z,27.22
2023-03-23T07:28:58.043Z,27.23
2023-03-23T07:29:57.712Z,27.20
2023-03-23T07:30:57.712Z,27.23
2023-03-23T07:31:57.748Z,27.25
2023-03-23T07:32:57.777Z,27.23
2023-03-23T07:33:57.790Z,27.25
2023-03-23T07:34:57.898Z,27.27
2023-03-23T07:35:57.915Z,27.26
2023-03-23T07:36:57.928Z,27.27
2023-03-23T07:37:57.920Z,27.29
2023-03-23T07:38:58.034Z,27.30
2023-03-23T07:39:58.105Z,27.32
2023-03-23T07:40:58.126Z,27.30
2023-03-23T07:41:58.202Z,27.32
2023-03-23T07:42:58.521Z,27.33
2023-03-23T07:43:58.313Z,27.34
2023-03-23T07:44:58.364Z,27.34
2023-03-23T07:45:58.431Z,27.40
2023-03-23T07:46:58.474Z,27.38
2023-03-23T07:47:58.552Z,27.40
2023-03-23T07:48:58.592Z,27.40
2023-03-23T07:49:58.665Z,27.41
2023-03-23T07:50:58.703Z,27.38
2023-03-23T07:51:58.787Z,27.38
2023-03-23T07:52:58.809Z,27.40
2023-03-23T07:53:58.844Z,27.40
2023-03-23T07:56:58.858Z,27.30
2023-03-23T07:57:58.860Z,27.29
2023-03-23T07:58:58.859Z,27.23
2023-03-23T07:59:58.896Z,27.23
2023-03-23T08:00:58.919Z,27.27
2023-03-23T08:01:58.984Z,27.26
2023-03-23T08:02:58.994Z,27.26
2023-03-23T08:03:59.023Z,27.29
2023-03-23T08:04:59.103Z,27.29
2023-03-23T08:05:59.395Z,27.30
2023-03-23T08:07:59.150Z,27.33
2023-03-23T08:08:59.210Z,27.34
2023-03-23T08:09:59.273Z,27.40
2023-03-23T08:10:59.365Z,27.43
2023-03-23T08:11:59.411Z,27.47
2023-03-23T08:12:59.466Z,27.48
2023-03-23T08:13:59.531Z,27.56
2023-03-23T08:14:59.545Z,27.57
2023-03-23T08:15:59.577Z,27.62
2023-03-23T08:16:59.633Z,27.65
2023-03-23T08:17:59.672Z,27.70
2023-03-23T08:18:59.693Z,27.74
2023-03-23T08:20:00.719Z,27.77
2023-03-23T08:25:59.656Z,27.89
2023-03-23T08:27:59.609Z,27.88
2023-03-23T08:28:59.655Z,27.89
2023-03-23T08:29:59.725Z,27.91
2023-03-23T08:30:59.896Z,27.89
2023-03-23T08:31:59.670Z,27.84
2023-03-23T08:32:59.722Z,27.85
2023-03-23T08:39:59.908Z,27.85
2023-03-23T08:40:59.941Z,27.85
2023-03-23T08:41:59.936Z,27.87
2023-03-23T08:43:01.265Z,27.87
2023-03-23T08:44:00.031Z,27.84
2023-03-23T08:44:59.987Z,27.88
2023-03-23T08:46:00.130Z,27.87
2023-03-23T08:47:00.581Z,27.85
2023-03-23T08:49:00.144Z,27.81
2023-03-23T08:50:00.165Z,27.80
2023-03-23T08:51:00.487Z,27.83
2023-03-23T08:54:00.260Z,27.81
2023-03-23T08:56:00.293Z,27.83
2023-03-23T08:57:00.563Z,27.84
2023-03-23T08:58:00.341Z,27.83
2023-03-23T09:03:00.548Z,27.89
2023-03-23T09:04:00.611Z,27.92
2023-03-23T09:05:00.656Z,27.92
2023-03-23T09:06:00.725Z,27.94
2023-03-23T09:07:00.783Z,27.95
2023-03-23T09:08:00.836Z,27.98
2023-03-23T09:09:00.954Z,27.97
2023-03-23T09:10:00.965Z,27.97
2023-03-23T09:11:01.070Z,27.98
2023-03-23T09:12:01.090Z,28.01
2023-03-23T09:13:01.138Z,28.02
2023-03-23T09:14:01.220Z,28.05
2023-03-23T09:15:01.259Z,28.05
2023-03-23T09:16:01.601Z,28.08
2023-03-23T09:17:01.384Z,28.08
2023-03-23T09:18:02.453Z,28.09
2023-03-23T09:19:01.532Z,28.07
2023-03-23T09:20:01.623Z,28.08
2023-03-23T09:21:01.711Z,28.08
2023-03-23T09:22:01.693Z,28.09
2023-03-23T09:23:01.733Z,28.12
2023-03-23T09:24:01.807Z,28.13
2023-03-23T09:25:01.884Z,28.13
2023-03-23T09:26:02.067Z,28.16
2023-03-23T09:27:02.488Z,28.16
2023-03-23T09:28:02.006Z,28.18
2023-03-23T09:29:02.012Z,28.21
2023-03-23T09:30:02.095Z,28.25
2023-03-23T09:31:03.052Z,28.28
2023-03-23T09:32:02.444Z,28.31
2023-03-23T09:34:02.045Z,28.34
2023-03-23T09:38:01.990Z,28.39
2023-03-23T09:42:01.933Z,28.39
2023-03-23T09:43:01.969Z,28.39
2023-03-23T09:44:01.965Z,28.39
2023-03-23T09:48:01.904Z,28.39
2023-03-23T09:49:01.951Z,28.42
2023-03-23T09:50:01.963Z,28.43
2023-03-23T09:51:01.993Z,28.45
2023-03-23T09:52:02.420Z,28.41
2023-03-23T09:53:02.116Z,28.39
2023-03-23T09:56:02.095Z,28.46
2023-03-23T09:57:02.090Z,28.42
2023-03-23T09:58:02.124Z,28.41
2023-03-23T10:01:02.251Z,28.32
2023-03-23T10:02:02.415Z,28.31
2023-03-23T10:03:02.320Z,28.26
2023-03-23T10:04:02.399Z,28.23
2023-03-23T10:05:02.427Z,28.26
2023-03-23T10:06:02.520Z,28.25
2023-03-23T10:07:02.581Z,28.25
2023-03-23T10:08:02.597Z,28.26
2023-03-23T10:09:02.650Z,28.29
2023-03-23T10:10:02.676Z,28.28
2023-03-23T10:11:02.712Z,28.35
2023-03-23T10:12:02.763Z,28.29
2023-03-23T10:13:02.788Z,28.26
2023-03-23T10:14:02.837Z,28.26
2023-03-23T10:15:02.894Z,28.21
2023-03-23T10:16:02.985Z,28.16
2023-03-23T10:17:03.007Z,28.11
2023-03-23T10:18:03.070Z,28.13
2023-03-23T10:19:03.119Z,28.12
2023-03-23T10:20:03.189Z,28.11
2023-03-23T10:21:03.235Z,28.13
2023-03-23T10:22:03.428Z,28.15
2023-03-23T10:23:03.319Z,28.16
2023-03-23T10:24:03.378Z,28.19
2023-03-23T10:25:03.396Z,28.18
2023-03-23T10:26:03.482Z,28.25
2023-03-23T10:27:03.496Z,28.23
2023-03-23T10:28:03.507Z,28.25
2023-03-23T10:29:03.520Z,28.28
2023-03-23T10:30:03.561Z,28.26
2023-03-23T10:37:03.976Z,28.22
2023-03-23T10:38:03.694Z,28.23
2023-03-23T10:43:03.786Z,28.29
2023-03-23T10:44:03.809Z,28.28
2023-03-23T10:45:03.814Z,28.34
2023-03-23T10:46:04.045Z,28.34
2023-03-23T10:47:03.988Z,28.34
2023-03-23T10:48:03.873Z,28.32
2023-03-23T10:50:03.901Z,28.34
2023-03-23T10:51:03.880Z,28.36
2023-03-23T10:52:03.982Z,28.38
2023-03-23T10:53:05.114Z,28.39
2023-03-23T10:54:03.989Z,28.41
2023-03-23T10:59:03.975Z,28.59
2023-03-23T11:00:04.343Z,28.63
2023-03-23T11:01:04.027Z,28.66
2023-03-23T11:02:04.037Z,28.66
2023-03-23T11:03:05.735Z,28.67
2023-03-23T11:04:04.061Z,28.70
2023-03-23T11:05:09.428Z,28.76
2023-03-23T11:06:05.110Z,28.76
2023-03-23T11:09:04.028Z,28.80
2023-03-23T11:10:04.097Z,28.82
2023-03-23T11:11:05.077Z,28.83
2023-03-23T11:12:04.058Z,28.87
2023-03-23T11:13:04.066Z,28.87
2023-03-23T11:15:04.024Z,28.93
2023-03-23T11:16:04.029Z,28.94
2023-03-23T11:17:13.894Z,28.97
2023-03-23T11:18:05.003Z,28.97
2023-03-23T11:23:04.231Z,29.00
2023-03-23T11:24:09.992Z,29.06
2023-03-23T11:25:05.231Z,29.03
2023-03-23T11:26:04.253Z,29.06
2023-03-23T11:29:04.200Z,29.07
2023-03-23T11:30:04.244Z,29.09
2023-03-23T11:32:04.202Z,29.10
2023-03-23T11:33:04.509Z,29.11
2023-03-23T11:36:04.182Z,29.14
2023-03-23T11:37:04.226Z,29.13
2023-03-23T11:38:04.526Z,29.16
2023-03-23T11:39:04.288Z,29.14
2023-03-23T11:40:04.328Z,29.11
2023-03-23T11:41:04.410Z,29.10
2023-03-23T11:42:09.443Z,29.03
2023-03-23T11:43:05.442Z,28.97
2023-03-23T11:50:04.435Z,28.58
2023-03-23T11:51:05.502Z,28.52
2023-03-23T11:52:04.387Z,28.52
2023-03-23T11:53:04.579Z,28.52
2023-03-23T11:54:05.379Z,28.50
2023-03-23T12:07:04.745Z,28.39
2023-03-23T12:08:05.028Z,28.38
2023-03-23T12:09:04.852Z,28.36
2023-03-23T12:10:04.917Z,28.36
2023-03-23T12:11:05.120Z,28.36
2023-03-23T12:12:05.093Z,28.36
2023-03-23T12:14:05.157Z,28.35
2023-03-23T12:15:05.210Z,28.39
2023-03-23T12:16:05.316Z,28.42
2023-03-23T12:17:05.285Z,28.42
2023-03-23T12:18:05.329Z,28.41
2023-03-23T12:19:05.390Z,28.43
2023-03-23T12:20:06.017Z,28.46
2023-03-23T12:22:05.510Z,28.48
2023-03-23T12:23:05.993Z,28.48
2023-03-23T12:24:06.444Z,28.50
2023-03-23T12:25:05.641Z,28.55
2023-03-23T12:26:05.651Z,28.56
2023-03-23T12:27:05.671Z,28.59
2023-03-23T12:28:06.004Z,28.63
2023-03-23T12:29:05.713Z,28.66
2023-03-23T12:34:05.772Z,28.74
2023-03-23T12:35:05.749Z,28.74
2023-03-23T12:36:05.773Z,28.77
2023-03-23T12:37:05.779Z,28.74
2023-03-23T12:38:05.831Z,28.76
2023-03-23T12:39:05.838Z,28.79
2023-03-23T12:40:05.910Z,28.79
2023-03-23T12:41:05.919Z,28.79
2023-03-23T12:42:05.903Z,28.76
2023-03-23T12:43:06.026Z,28.77
2023-03-23T12:49:06.195Z,28.79
2023-03-23T12:50:06.271Z,28.80
2023-03-23T12:51:06.274Z,28.80
2023-03-23T12:52:06.344Z,28.80
2023-03-23T12:53:06.470Z,28.80
2023-03-23T12:54:06.429Z,28.77
2023-03-23T13:00:06.667Z,28.82
2023-03-23T13:02:06.688Z,28.79
2023-03-23T13:03:06.684Z,28.80
2023-03-23T13:04:06.772Z,28.80
2023-03-23T13:05:06.781Z,28.79
2023-03-23T13:06:06.809Z,28.79
2023-03-23T13:07:06.896Z,28.79
2023-03-23T13:08:06.940Z,28.80
2023-03-23T13:09:06.997Z,28.80
2023-03-23T13:10:07.039Z,28.79
2023-03-23T13:13:07.163Z,28.79
2023-03-23T13:14:07.097Z,28.80
2023-03-23T13:15:07.176Z,28.79
2023-03-23T13:16:08.788Z,28.79
2023-03-23T13:17:07.242Z,28.79
2023-03-23T13:18:07.283Z,28.77
2023-03-23T13:19:07.329Z,28.79
2023-03-23T13:20:07.334Z,28.79
2023-03-23T13:21:07.386Z,28.77
2023-03-23T13:22:07.424Z,28.80
2023-03-23T13:23:07.484Z,28.79
2023-03-23T13:25:07.507Z,28.80
2023-03-23T13:26:07.521Z,28.82
2023-03-23T13:28:07.588Z,28.80
2023-03-23T13:29:07.618Z,28.82
2023-03-23T13:30:07.643Z,28.80
2023-03-23T13:31:07.675Z,28.80
2023-03-23T13:32:07.693Z,28.79
2023-03-23T13:33:07.713Z,28.79
2023-03-23T13:34:07.733Z,28.79
2023-03-23T13:35:07.766Z,28.80
2023-03-23T13:36:13.404Z,28.79
2023-03-23T13:37:08.825Z,28.79
2023-03-23T13:39:07.790Z,28.79
2023-03-23T13:43:07.764Z,28.79
2023-03-23T13:46:07.737Z,28.79
2023-03-23T13:48:07.737Z,28.80
2023-03-23T13:54:07.714Z,28.82
2023-03-23T13:55:07.704Z,28.79
2023-03-23T13:56:12.216Z,28.83
2023-03-23T13:57:08.750Z,28.79
2023-03-23T13:59:07.738Z,28.76
2023-03-23T14:04:07.699Z,28.74
2023-03-23T14:06:07.694Z,28.73
2023-03-23T14:08:07.675Z,28.73
2023-03-23T14:13:07.675Z,28.77
2023-03-23T14:14:07.707Z,28.80
2023-03-23T14:15:07.712Z,28.82
2023-03-23T14:16:07.785Z,28.82
2023-03-23T14:17:07.795Z,28.83
2023-03-23T14:18:07.840Z,28.82
2023-03-23T14:19:07.864Z,28.80
2023-03-23T14:20:07.916Z,28.77
2023-03-23T14:21:07.937Z,28.77
2023-03-23T14:22:07.940Z,28.76
2023-03-23T14:29:07.875Z,28.73
2023-03-23T14:30:07.958Z,28.73
2023-03-23T14:39:07.829Z,28.70
2023-03-23T14:47:07.789Z,28.66
2023-03-23T14:48:07.798Z,28.67
2023-03-23T14:52:07.755Z,28.66
2023-03-23T15:01:07.640Z,28.62
2023-03-23T15:02:07.660Z,28.62
2023-03-23T15:04:07.744Z,28.62
2023-03-23T15:05:07.744Z,28.63
2023-03-23T15:06:07.820Z,28.60
2023-03-23T15:07:07.821Z,28.62
2023-03-23T15:08:07.883Z,28.63
2023-03-23T15:09:08.170Z,28.59
2023-03-23T15:10:07.946Z,28.62
2023-03-23T15:11:07.991Z,28.59
2023-03-23T15:12:08.063Z,28.60
2023-03-23T15:13:08.068Z,28.62
2023-03-23T15:14:08.173Z,28.62
2023-03-23T15:21:08.291Z,28.59
2023-03-23T15:22:08.574Z,28.59
2023-03-23T15:25:08.453Z,28.59
2023-03-23T15:26:08.486Z,28.55
2023-03-23T15:27:08.502Z,28.59
2023-03-23T15:28:08.558Z,28.59
2023-03-23T15:29:08.611Z,28.56
2023-03-23T15:30:08.737Z,28.56
2023-03-23T15:31:08.702Z,28.55
2023-03-23T15:32:08.708Z,28.58
2023-03-23T15:36:08.782Z,28.53
2023-03-23T15:37:14.893Z,28.56
2023-03-23T15:38:09.788Z,28.56
2023-03-23T15:40:08.789Z,28.58
2023-03-23T15:45:08.744Z,28.58
2023-03-23T15:46:08.765Z,28.56
2023-03-23T15:49:08.695Z,28.58
2023-03-23T15:50:08.716Z,28.50
2023-03-23T15:51:08.670Z,28.53
2023-03-23T15:52:08.680Z,28.55
2023-03-23T15:53:08.686Z,28.55
2023-03-23T15:56:08.680Z,28.53
2023-03-23T15:58:08.726Z,28.53
2023-03-23T16:00:08.645Z,28.53
2023-03-23T16:02:08.692Z,28.56
2023-03-23T16:08:08.571Z,28.50
2023-03-23T16:09:08.571Z,28.52
2023-03-23T16:11:08.559Z,28.53
2023-03-23T16:12:08.586Z,28.52
2023-03-23T16:13:08.542Z,28.50
2023-03-23T16:14:08.572Z,28.52
2023-03-23T16:15:08.611Z,28.49
2023-03-23T16:16:08.668Z,28.49
2023-03-23T16:17:08.753Z,28.49
2023-03-23T16:18:08.840Z,28.49
2023-03-23T16:19:08.776Z,28.49
2023-03-23T16:20:08.841Z,28.48
2023-03-23T16:21:08.887Z,28.52
2023-03-23T16:22:08.920Z,28.46
2023-03-23T16:23:08.873Z,28.48
2023-03-23T16:24:08.884Z,28.45
2023-03-23T16:31:08.926Z,28.46
2023-03-23T16:32:08.862Z,28.43
2023-03-23T16:33:08.954Z,28.46
2023-03-23T16:34:08.887Z,28.46
2023-03-23T16:35:08.890Z,28.43
2023-03-23T16:36:08.919Z,28.48
2023-03-23T16:37:08.895Z,28.46
2023-03-23T16:38:09.307Z,28.49
2023-03-23T16:39:08.871Z,28.46
2023-03-23T16:44:08.876Z,28.46
2023-03-23T16:45:08.871Z,28.46
2023-03-23T16:46:08.939Z,28.45
2023-03-23T16:53:09.190Z,28.42
2023-03-23T16:54:09.225Z,28.43
2023-03-23T16:55:09.270Z,28.42
2023-03-23T16:56:09.317Z,28.45
2023-03-23T16:57:09.359Z,28.42
2023-03-23T16:58:17.075Z,28.41
2023-03-23T16:59:10.289Z,28.42
2023-03-23T17:02:09.269Z,28.42
2023-03-23T17:06:09.216Z,28.41
2023-03-23T17:11:09.191Z,28.39
2023-03-23T17:12:09.159Z,28.38
2023-03-23T17:13:09.211Z,28.38
2023-03-23T17:21:09.197Z,28.38
2023-03-23T17:22:09.202Z,28.38
2023-03-23T17:23:09.229Z,28.36
2023-03-23T17:30:09.255Z,28.38
2023-03-23T17:31:09.304Z,28.36
2023-03-23T17:32:09.487Z,28.38
2023-03-23T17:33:09.278Z,28.34
2023-03-23T17:34:09.263Z,28.38
2023-03-23T17:35:09.297Z,28.36
2023-03-23T17:36:09.322Z,28.35
2023-03-23T17:37:09.322Z,28.36
2023-03-23T17:50:11.830Z,28.35
2023-03-23T17:51:09.597Z,28.36
2023-03-23T17:52:09.616Z,28.34
2023-03-23T17:57:09.575Z,28.34
2023-03-23T17:58:09.554Z,28.32
2023-03-23T17:59:09.562Z,28.34
2023-03-23T18:11:09.508Z,28.34
2023-03-23T18:13:09.422Z,28.31
2023-03-23T18:14:09.426Z,28.31
2023-03-23T18:16:09.431Z,28.29
2023-03-23T18:17:09.439Z,28.31
2023-03-23T18:27:09.330Z,28.31
2023-03-23T18:28:09.333Z,28.29
2023-03-23T18:29:09.361Z,28.31
2023-03-23T18:31:09.294Z,28.32
2023-03-23T18:32:09.372Z,28.32
2023-03-23T18:33:09.443Z,28.29
2023-03-23T18:37:09.282Z,28.29
2023-03-23T18:38:09.281Z,28.26
2023-03-23T18:43:09.346Z,28.29
2023-03-23T18:44:09.358Z,28.28
2023-03-23T18:45:09.429Z,28.26
2023-03-23T18:46:09.396Z,28.29
2023-03-23T18:53:09.487Z,28.28
2023-03-23T18:54:09.495Z,28.26
2023-03-23T18:55:10.164Z,28.28
2023-03-23T19:06:09.620Z,28.26
2023-03-23T19:07:09.644Z,28.25
2023-03-23T19:08:09.635Z,28.26
2023-03-23T19:09:09.684Z,28.28
2023-03-23T19:10:09.687Z,28.26
2023-03-23T19:11:09.725Z,28.28
2023-03-23T19:12:09.728Z,28.25
2023-03-23T19:18:09.800Z,28.25
2023-03-23T19:19:09.810Z,28.25
2023-03-23T19:20:13.851Z,28.26
2023-03-23T19:21:14.534Z,28.23
2023-03-23T19:23:09.833Z,28.23
2023-03-23T19:27:09.788Z,28.25
2023-03-23T19:28:55.642Z,28.25
2023-03-23T19:29:26.306Z,28.25
2023-03-23T19:30:10.773Z,28.26
2023-03-23T19:32:09.730Z,28.23
2023-03-23T19:33:09.858Z,28.22
2023-03-23T19:34:09.730Z,28.23
2023-03-23T19:38:09.721Z,28.23
2023-03-23T19:39:09.744Z,28.22
2023-03-23T19:40:24.752Z,28.25
2023-03-23T19:41:10.695Z,28.23
2023-03-23T19:42:09.780Z,28.25
2023-03-23T19:43:09.927Z,28.23
2023-03-23T19:44:09.681Z,28.23
2023-03-23T19:49:09.654Z,28.19
2023-03-23T19:50:09.891Z,28.25
2023-03-23T19:51:09.833Z,28.22
2023-03-23T19:52:12.602Z,28.21
2023-03-23T19:55:09.610Z,28.19
2023-03-23T20:00:09.567Z,28.22
2023-03-23T20:01:09.581Z,28.23
2023-03-23T20:03:09.586Z,28.21
2023-03-23T20:08:09.506Z,28.21
2023-03-23T20:09:09.531Z,28.22
2023-03-23T20:10:09.525Z,28.21
2023-03-23T20:11:09.523Z,28.23
2023-03-23T20:12:09.841Z,28.23
2023-03-23T20:13:10.307Z,28.22
2023-03-23T20:14:09.619Z,28.22
2023-03-23T20:15:09.698Z,28.22
2023-03-23T20:16:09.764Z,28.22
2023-03-23T20:17:10.037Z,28.22
2023-03-23T20:18:09.902Z,28.21
2023-03-23T20:19:10.152Z,28.22
2023-03-23T20:20:10.578Z,28.22
2023-03-23T20:21:10.037Z,28.21
2023-03-23T20:22:10.129Z,28.21
2023-03-23T20:26:11.674Z,28.22
2023-03-23T20:27:10.452Z,28.21
2023-03-23T20:28:10.438Z,28.23
2023-03-23T20:29:10.628Z,28.23
2023-03-23T20:30:10.609Z,28.22
2023-03-23T20:31:17.039Z,28.21
2023-03-23T20:32:11.635Z,28.21
2023-03-23T20:37:10.586Z,28.21
2023-03-23T20:38:10.624Z,28.21
2023-03-23T20:39:10.705Z,28.21
2023-03-23T20:40:10.581Z,28.19
2023-03-23T20:41:10.654Z,28.19
2023-03-23T20:42:10.675Z,28.19
2023-03-23T20:43:10.862Z,28.21
2023-03-23T20:44:10.792Z,28.21
2023-03-23T20:45:10.851Z,28.23
2023-03-23T20:46:10.924Z,28.21
2023-03-23T20:47:10.997Z,28.21
2023-03-23T20:48:11.038Z,28.18
2023-03-23T20:49:11.103Z,28.19
2023-03-23T20:50:11.170Z,28.19
2023-03-23T20:51:11.256Z,28.19
2023-03-23T20:52:11.277Z,28.19
2023-03-23T20:53:11.348Z,28.18
2023-03-23T20:54:11.419Z,28.18
2023-03-23T20:55:11.492Z,28.19
2023-03-23T20:56:11.529Z,28.21
2023-03-23T20:57:11.604Z,28.18
2023-03-23T20:58:11.591Z,28.21
2023-03-23T20:59:11.599Z,28.21
2023-03-23T21:00:11.659Z,28.21
2023-03-23T21:07:11.806Z,28.18
2023-03-23T21:08:11.886Z,28.19
2023-03-23T21:12:11.889Z,28.19
2023-03-23T21:13:11.912Z,28.19
2023-03-23T21:14:11.904Z,28.19
2023-03-23T21:15:11.934Z,28.16
2023-03-23T21:16:11.954Z,28.21
2023-03-23T21:17:11.948Z,28.18
2023-03-23T21:18:12.001Z,28.19
2023-03-23T21:19:12.034Z,28.22
2023-03-23T21:26:12.168Z,28.19
2023-03-23T21:28:12.180Z,28.19
2023-03-23T21:29:12.189Z,28.21
2023-03-23T21:30:12.280Z,28.16
2023-03-23T21:32:12.254Z,28.18
2023-03-23T21:33:12.302Z,28.19
2023-03-23T21:34:12.370Z,28.19
2023-03-23T21:35:12.517Z,28.22
2023-03-23T21:36:12.522Z,28.21
2023-03-23T21:37:12.579Z,28.18
2023-03-23T21:38:12.590Z,28.19
2023-03-23T21:39:12.666Z,28.19
2023-03-23T21:40:12.726Z,28.21